Aérodrome :
LOGIN :

S'inscrire | Disclaimer

   EN    FR    IT 

 










Légende :    VFR   VFR Marginal   IFR   IFR Intensif   IFR Très Intensif
Visi : 
Plafond : 
>= 8 km
>= 3000ft
5 à 8 km
1000 à 3000 ft
1500m à 5 km
500 à 1000 ft
800 à 1500m
200 à 500 ft
< 800m
< 200 ft
Symboles :   Orages  Brouillard  Fortes neiges  Fortes précipitations  Vent > 20 kt
SIGMETs :   Divers  Orages  Givrage  Turbulence  Onde Orograph.  Cendres Volcan.






- Altitude de l'aérodrome : 78 ft
- Code IATA : LED


ULLI - Pulkovo

DERNIER METAR :
  • 041830Z 24002MPS 210V270 CAVOK 00/M07 Q1015 R28L/090060 NOSIG

METARs EXPIRÉS :
  • 041800Z 24002MPS 210V290 CAVOK 01/M06 Q1015 R28L/090060 NOSIG
  • 041730Z 27004MPS CAVOK 00/M07 Q1015 R28L/090060 NOSIG
  • 041700Z 27004MPS CAVOK 02/M07 Q1015 R28L/090060 NOSIG
  • 041630Z 27004MPS CAVOK 02/M07 Q1014 R28L/090060 NOSIG
  • 041600Z 27005MPS CAVOK 03/M07 Q1014 R28L/090060 NOSIG
  • 041530Z 28006MPS CAVOK 04/M05 Q1014 R88/090060 NOSIG

TAF TAF ULLI
Valide du 04 à 18h jusqu'au 05 à 18h UTC


041658Z 0418/0518 27003G08MPS 9999 SCT020
TEMPO 0418/0420 3100 -SHRASN SCT011 BKN018CB
TEMPO 0420/0424 1500 -SHSN BR SCT010 BKN016CB
BECMG 0506/0508 30005G10MPS
TEMPO 0508/0514 31007G13MPS -SHSNRA BKN016CB



MET'MAP, la Météo Aéronautique d'un coup d'oeil ! - Copyright ORBIFLY Décembre 2007 - Disclaimer

ORBIFLY MET'MAP TEAM :

Programmation & Développement : Alexandra Zaïnal
Sur une idée originale de : Baudouin d'Aumeries
Assistance à la programmation : Marc-Olivier Méhu
Soutien technique & logistique : Manuel Goepfert

Contact : metmap@orbifly.com




SOURCES & CREDITS :

   NOAA